createdAt,value
2018-08-10T00:03:56.157Z,3.4
2018-08-10T00:14:16.090Z,2.7
2018-08-10T00:24:38.480Z,2.7
2018-08-10T00:34:38.766Z,2.7
2018-08-10T00:45:01.466Z,2.1
2018-08-10T00:55:14.790Z,2.6
2018-08-10T01:05:43.449Z,2.8
2018-08-10T01:14:08.796Z,2.7
2018-08-10T01:24:18.334Z,2.5
2018-08-10T01:34:23.346Z,3.1
2018-08-10T01:44:32.796Z,2.2
2018-08-10T01:54:38.917Z,2.3
2018-08-10T02:04:52.856Z,2.6
2018-08-10T02:14:56.781Z,2
2018-08-10T02:25:01.520Z,2.9
2018-08-10T02:35:02.260Z,2.7
2018-08-10T02:45:10.790Z,2.6
2018-08-10T02:55:14.848Z,3
2018-08-10T03:05:17.831Z,2.8
2018-08-10T03:15:24.906Z,3.1
2018-08-10T03:25:34.891Z,3.1
2018-08-10T03:35:45.254Z,2.9
2018-08-10T03:45:45.681Z,2.9
2018-08-10T03:55:55.267Z,3.1
2018-08-10T04:06:02.821Z,3
2018-08-10T04:16:11.663Z,2.8
2018-08-10T04:26:12.504Z,3.6
2018-08-10T04:36:15.192Z,2.2
2018-08-10T04:46:15.223Z,2.3
2018-08-10T04:56:26.564Z,1.9
2018-08-10T05:06:37.189Z,2.1
2018-08-10T05:16:42.973Z,1.7
2018-08-10T05:26:49.383Z,0.8
2018-08-10T05:36:51.217Z,0.9
2018-08-10T05:46:54.960Z,1
2018-08-10T05:56:57.221Z,1.4
2018-08-10T06:07:02.113Z,1
2018-08-10T06:18:05.748Z,1.2
2018-08-10T06:28:14.098Z,1.3
2018-08-10T06:38:29.042Z,1.4
2018-08-10T06:48:38.517Z,1.4
2018-08-10T06:58:49.925Z,0.8
2018-08-10T07:09:03.840Z,1.3
2018-08-10T07:19:16.229Z,1
2018-08-10T07:29:27.140Z,0.9
2018-08-10T07:39:49.121Z,0.9
2018-08-10T07:50:02.144Z,1.5
2018-08-10T08:00:36.382Z,1.3
2018-08-10T08:10:38.756Z,1
2018-08-10T08:20:41.260Z,1.2
2018-08-10T08:30:49.492Z,1.2
2018-08-10T08:41:05.736Z,1.2
2018-08-10T08:51:11.797Z,1.1
2018-08-10T09:01:11.621Z,1.3
2018-08-10T09:11:14.697Z,1.1
2018-08-10T09:21:14.748Z,1.7
2018-08-10T09:31:17.387Z,1
2018-08-10T09:41:18.038Z,1.3
2018-08-10T09:51:17.658Z,1.2
2018-08-10T10:01:18.507Z,1.4
2018-08-10T10:11:20.963Z,1.2
2018-08-10T10:21:26.864Z,1.3
2018-08-10T10:31:31.473Z,1.3
2018-08-10T10:41:34.296Z,1
2018-08-10T10:51:52.483Z,1.4
2018-08-10T11:01:57.214Z,1.5
2018-08-10T11:12:01.202Z,1.2
2018-08-10T11:22:05.399Z,0.9
2018-08-10T11:32:08.335Z,1.4
2018-08-10T11:42:27.767Z,1.2
2018-08-10T11:53:47.632Z,1.3
2018-08-10T12:03:54.632Z,1.5
2018-08-10T12:14:13.605Z,1.5
2018-08-10T12:24:37.040Z,1.5
2018-08-10T12:34:43.034Z,1.5
2018-08-10T12:44:46.324Z,1.4
2018-08-10T12:54:57.852Z,1.6
2018-08-10T13:05:40.940Z,1.5
2018-08-10T13:16:08.011Z,1.5
2018-08-10T13:26:20.842Z,1.4
2018-08-10T13:36:24.340Z,2
2018-08-10T13:46:36.386Z,2
2018-08-10T13:56:51.292Z,1.6
2018-08-10T14:06:58.563Z,2.1
2018-08-10T14:17:10.456Z,1.8
2018-08-10T14:27:13.023Z,2.1
2018-08-10T14:37:18.182Z,2.4
2018-08-10T14:47:18.980Z,2.2
2018-08-10T14:57:20.068Z,2.6
2018-08-10T15:07:22.921Z,2.6
2018-08-10T15:17:29.481Z,2.7
2018-08-10T15:27:32.733Z,2.5
2018-08-10T15:38:20.788Z,2.4
2018-08-10T15:49:32.638Z,2.7
2018-08-10T15:59:55.737Z,2.7
2018-08-10T16:09:55.860Z,2.7
2018-08-10T16:19:55.884Z,2.8
2018-08-10T16:29:59.594Z,2.7
2018-08-10T16:39:59.542Z,3.3
2018-08-10T16:50:00.644Z,2.6
2018-08-10T17:00:01.006Z,2.9
2018-08-10T17:10:01.070Z,3.1
2018-08-10T17:20:00.755Z,3.4
2018-08-10T17:30:04.317Z,3.8
2018-08-10T17:40:03.991Z,3.4
2018-08-10T17:50:03.723Z,3.1
2018-08-10T18:00:03.872Z,3.3
2018-08-10T18:10:07.346Z,2.9
2018-08-10T18:20:07.232Z,3.2
2018-08-10T18:30:10.611Z,2.8
2018-08-10T18:40:13.575Z,2.7
2018-08-10T18:50:17.820Z,2.7
2018-08-10T19:00:23.501Z,2.6
2018-08-10T19:10:26.821Z,3.2
2018-08-10T19:20:28.675Z,2.4
2018-08-10T19:30:28.814Z,2.9
2018-08-10T19:40:28.583Z,3
2018-08-10T19:50:29.173Z,3.4
2018-08-10T20:00:29.092Z,3.4
2018-08-10T20:10:29.548Z,3.1
2018-08-10T20:20:29.923Z,2.7
2018-08-10T20:30:29.490Z,3.1
2018-08-10T20:40:29.331Z,4.2
2018-08-10T20:50:29.155Z,3.1
2018-08-10T21:00:29.220Z,1.8
2018-08-10T21:10:29.955Z,1.5
2018-08-10T21:20:29.911Z,2.4
2018-08-10T21:30:29.582Z,3.5
2018-08-10T21:40:29.187Z,3.2
2018-08-10T21:50:28.896Z,2.1
2018-08-10T22:00:28.553Z,1.1
2018-08-10T22:10:28.349Z,1.5
2018-08-10T22:20:29.019Z,1.6
2018-08-10T22:30:28.628Z,1.6
2018-08-10T22:40:28.178Z,1.4
2018-08-10T22:50:27.780Z,1.4
2018-08-10T23:00:27.345Z,1.9
2018-08-10T23:10:27.909Z,1.6
2018-08-10T23:20:27.903Z,1.4
2018-08-10T23:30:28.021Z,1.4
2018-08-10T23:40:27.796Z,1.2
2018-08-10T23:50:27.398Z,1.3
